sensor_id;sensor_type;location;lat;lon;timestamp;P1;durP1;ratioP1;P2;durP2;ratioP2
22015;SDS011;11172;51.698;-0.292;2022-10-31T00:01:43;69.63;;;62.00;;
22015;SDS011;11172;51.698;-0.292;2022-10-31T00:04:09;68.75;;;60.88;;
22015;SDS011;11172;51.698;-0.292;2022-10-31T00:06:35;67.93;;;60.80;;
22015;SDS011;11172;51.698;-0.292;2022-10-31T00:09:02;73.68;;;64.20;;
22015;SDS011;11172;51.698;-0.292;2022-10-31T00:11:29;77.18;;;69.10;;
22015;SDS011;11172;51.698;-0.292;2022-10-31T00:13:56;74.85;;;66.13;;
22015;SDS011;11172;51.698;-0.292;2022-10-31T00:16:23;76.57;;;66.45;;
22015;SDS011;11172;51.698;-0.292;2022-10-31T00:18:50;71.13;;;63.70;;
22015;SDS011;11172;51.698;-0.292;2022-10-31T00:21:16;77.97;;;68.97;;
22015;SDS011;11172;51.698;-0.292;2022-10-31T00:23:42;71.88;;;64.03;;
22015;SDS011;11172;51.698;-0.292;2022-10-31T00:26:08;75.35;;;66.47;;
22015;SDS011;11172;51.698;-0.292;2022-10-31T00:28:42;78.30;;;69.07;;
22015;SDS011;11172;51.698;-0.292;2022-10-31T00:31:16;86.35;;;69.95;;
22015;SDS011;11172;51.698;-0.292;2022-10-31T00:33:45;66.18;;;59.08;;
22015;SDS011;11172;51.698;-0.292;2022-10-31T00:36:12;75.95;;;67.97;;
22015;SDS011;11172;51.698;-0.292;2022-10-31T00:38:39;79.40;;;70.97;;
22015;SDS011;11172;51.698;-0.292;2022-10-31T00:41:05;88.47;;;73.28;;
22015;SDS011;11172;51.698;-0.292;2022-10-31T00:43:31;84.28;;;67.60;;
22015;SDS011;11172;51.698;-0.292;2022-10-31T00:45:57;78.88;;;70.43;;
22015;SDS011;11172;51.698;-0.292;2022-10-31T00:48:24;90.03;;;69.07;;
22015;SDS011;11172;51.698;-0.292;2022-10-31T00:50:53;80.40;;;70.32;;
22015;SDS011;11172;51.698;-0.292;2022-10-31T00:53:20;81.50;;;71.95;;
22015;SDS011;11172;51.698;-0.292;2022-10-31T00:55:47;82.25;;;73.40;;
22015;SDS011;11172;51.698;-0.292;2022-10-31T00:58:17;76.15;;;68.28;;
22015;SDS011;11172;51.698;-0.292;2022-10-31T01:00:47;83.15;;;74.20;;
22015;SDS011;11172;51.698;-0.292;2022-10-31T01:03:19;71.60;;;64.20;;
22015;SDS011;11172;51.698;-0.292;2022-10-31T01:05:55;81.03;;;70.88;;
22015;SDS011;11172;51.698;-0.292;2022-10-31T01:08:21;82.03;;;72.57;;
22015;SDS011;11172;51.698;-0.292;2022-10-31T01:10:47;93.70;;;73.18;;
22015;SDS011;11172;51.698;-0.292;2022-10-31T01:13:23;81.40;;;72.63;;
22015;SDS011;11172;51.698;-0.292;2022-10-31T01:15:53;89.18;;;75.00;;
22015;SDS011;11172;51.698;-0.292;2022-10-31T01:18:19;81.07;;;71.00;;
22015;SDS011;11172;51.698;-0.292;2022-10-31T01:20:45;84.18;;;71.53;;
22015;SDS011;11172;51.698;-0.292;2022-10-31T01:23:11;78.88;;;70.80;;
22015;SDS011;11172;51.698;-0.292;2022-10-31T01:25:37;81.38;;;71.93;;
22015;SDS011;11172;51.698;-0.292;2022-10-31T01:28:03;79.03;;;70.72;;
22015;SDS011;11172;51.698;-0.292;2022-10-31T01:30:29;76.72;;;68.80;;
22015;SDS011;11172;51.698;-0.292;2022-10-31T01:32:56;73.50;;;66.10;;
22015;SDS011;11172;51.698;-0.292;2022-10-31T01:35:22;75.68;;;67.93;;
22015;SDS011;11172;51.698;-0.292;2022-10-31T01:37:48;80.57;;;72.47;;
22015;SDS011;11172;51.698;-0.292;2022-10-31T01:40:14;75.57;;;67.50;;
22015;SDS011;11172;51.698;-0.292;2022-10-31T01:42:40;87.60;;;78.45;;
22015;SDS011;11172;51.698;-0.292;2022-10-31T01:45:09;75.53;;;67.63;;
22015;SDS011;11172;51.698;-0.292;2022-10-31T01:47:37;80.22;;;71.80;;
22015;SDS011;11172;51.698;-0.292;2022-10-31T01:50:09;103.03;;;79.40;;
22015;SDS011;11172;51.698;-0.292;2022-10-31T01:52:38;78.88;;;70.25;;
22015;SDS011;11172;51.698;-0.292;2022-10-31T01:57:34;86.00;;;77.10;;
22015;SDS011;11172;51.698;-0.292;2022-10-31T02:00:03;81.05;;;72.72;;
22015;SDS011;11172;51.698;-0.292;2022-10-31T02:02:30;84.55;;;75.50;;
22015;SDS011;11172;51.698;-0.292;2022-10-31T02:04:57;80.88;;;72.43;;
22015;SDS011;11172;51.698;-0.292;2022-10-31T02:07:30;86.60;;;77.32;;
22015;SDS011;11172;51.698;-0.292;2022-10-31T02:09:57;79.93;;;72.07;;
22015;SDS011;11172;51.698;-0.292;2022-10-31T02:12:23;77.53;;;69.97;;
22015;SDS011;11172;51.698;-0.292;2022-10-31T02:14:50;79.13;;;71.50;;
22015;SDS011;11172;51.698;-0.292;2022-10-31T02:17:18;81.57;;;73.10;;
22015;SDS011;11172;51.698;-0.292;2022-10-31T02:20:01;84.60;;;75.57;;
22015;SDS011;11172;51.698;-0.292;2022-10-31T02:22:43;86.38;;;76.78;;
22015;SDS011;11172;51.698;-0.292;2022-10-31T02:30:23;81.55;;;72.88;;
22015;SDS011;11172;51.698;-0.292;2022-10-31T02:32:57;77.97;;;69.50;;
22015;SDS011;11172;51.698;-0.292;2022-10-31T02:35:31;78.18;;;69.97;;
22015;SDS011;11172;51.698;-0.292;2022-10-31T02:38:21;80.28;;;72.00;;
22015;SDS011;11172;51.698;-0.292;2022-10-31T02:40:51;83.40;;;74.15;;
22015;SDS011;11172;51.698;-0.292;2022-10-31T02:48:41;81.03;;;72.68;;
22015;SDS011;11172;51.698;-0.292;2022-10-31T02:51:09;81.15;;;71.35;;
22015;SDS011;11172;51.698;-0.292;2022-10-31T02:53:37;81.30;;;73.32;;
22015;SDS011;11172;51.698;-0.292;2022-10-31T02:58:33;77.65;;;69.60;;
22015;SDS011;11172;51.698;-0.292;2022-10-31T03:01:07;73.95;;;66.35;;
22015;SDS011;11172;51.698;-0.292;2022-10-31T03:03:46;82.45;;;74.03;;
22015;SDS011;11172;51.698;-0.292;2022-10-31T03:06:17;81.07;;;72.28;;
22015;SDS011;11172;51.698;-0.292;2022-10-31T03:09:03;77.30;;;69.00;;
22015;SDS011;11172;51.698;-0.292;2022-10-31T03:11:32;90.55;;;78.68;;
22015;SDS011;11172;51.698;-0.292;2022-10-31T03:16:41;80.20;;;71.80;;
22015;SDS011;11172;51.698;-0.292;2022-10-31T03:19:14;80.43;;;71.95;;
22015;SDS011;11172;51.698;-0.292;2022-10-31T03:21:45;78.50;;;70.63;;
22015;SDS011;11172;51.698;-0.292;2022-10-31T03:24:13;77.53;;;69.28;;
22015;SDS011;11172;51.698;-0.292;2022-10-31T03:26:43;79.05;;;70.78;;
22015;SDS011;11172;51.698;-0.292;2022-10-31T03:29:13;49.80;;;44.90;;
22015;SDS011;11172;51.698;-0.292;2022-10-31T03:32:00;74.18;;;66.88;;
22015;SDS011;11172;51.698;-0.292;2022-10-31T03:34:29;82.97;;;73.90;;
22015;SDS011;11172;51.698;-0.292;2022-10-31T03:37:01;58.15;;;52.38;;
22015;SDS011;11172;51.698;-0.292;2022-10-31T03:39:27;82.03;;;73.13;;
22015;SDS011;11172;51.698;-0.292;2022-10-31T03:41:57;74.55;;;67.13;;
22015;SDS011;11172;51.698;-0.292;2022-10-31T03:44:33;76.60;;;67.95;;
22015;SDS011;11172;51.698;-0.292;2022-10-31T03:47:00;81.20;;;72.85;;
22015;SDS011;11172;51.698;-0.292;2022-10-31T03:49:27;77.60;;;69.18;;
22015;SDS011;11172;51.698;-0.292;2022-10-31T03:51:57;81.38;;;72.80;;
22015;SDS011;11172;51.698;-0.292;2022-10-31T03:57:22;86.15;;;77.05;;
22015;SDS011;11172;51.698;-0.292;2022-10-31T03:59:54;78.70;;;70.55;;
22015;SDS011;11172;51.698;-0.292;2022-10-31T04:02:22;89.55;;;77.28;;
22015;SDS011;11172;51.698;-0.292;2022-10-31T04:04:49;78.32;;;70.60;;
22015;SDS011;11172;51.698;-0.292;2022-10-31T04:07:16;78.28;;;69.72;;
22015;SDS011;11172;51.698;-0.292;2022-10-31T04:09:44;74.53;;;67.03;;
22015;SDS011;11172;51.698;-0.292;2022-10-31T04:12:12;80.63;;;71.82;;
22015;SDS011;11172;51.698;-0.292;2022-10-31T04:14:43;79.07;;;70.53;;
22015;SDS011;11172;51.698;-0.292;2022-10-31T04:17:11;81.45;;;73.30;;
22015;SDS011;11172;51.698;-0.292;2022-10-31T04:19:45;82.47;;;74.28;;
22015;SDS011;11172;51.698;-0.292;2022-10-31T04:22:11;67.65;;;58.65;;
22015;SDS011;11172;51.698;-0.292;2022-10-31T04:24:38;79.40;;;69.97;;
22015;SDS011;11172;51.698;-0.292;2022-10-31T04:27:05;76.43;;;67.65;;
22015;SDS011;11172;51.698;-0.292;2022-10-31T04:29:31;80.00;;;71.45;;
22015;SDS011;11172;51.698;-0.292;2022-10-31T04:31:58;80.15;;;71.85;;
22015;SDS011;11172;51.698;-0.292;2022-10-31T04:34:24;87.18;;;73.03;;
22015;SDS011;11172;51.698;-0.292;2022-10-31T04:36:50;76.90;;;68.57;;
22015;SDS011;11172;51.698;-0.292;2022-10-31T04:39:16;75.18;;;66.95;;
22015;SDS011;11172;51.698;-0.292;2022-10-31T04:41:42;79.25;;;70.80;;
22015;SDS011;11172;51.698;-0.292;2022-10-31T04:44:08;79.18;;;71.32;;
22015;SDS011;11172;51.698;-0.292;2022-10-31T04:46:34;79.07;;;71.07;;
22015;SDS011;11172;51.698;-0.292;2022-10-31T04:49:05;73.78;;;66.15;;
22015;SDS011;11172;51.698;-0.292;2022-10-31T04:51:32;80.28;;;70.57;;
22015;SDS011;11172;51.698;-0.292;2022-10-31T04:56:30;81.90;;;73.70;;
22015;SDS011;11172;51.698;-0.292;2022-10-31T04:58:56;76.93;;;68.60;;
22015;SDS011;11172;51.698;-0.292;2022-10-31T05:01:22;74.50;;;66.88;;
22015;SDS011;11172;51.698;-0.292;2022-10-31T05:03:48;77.15;;;69.38;;
22015;SDS011;11172;51.698;-0.292;2022-10-31T05:06:14;75.90;;;67.57;;
22015;SDS011;11172;51.698;-0.292;2022-10-31T05:08:41;83.78;;;70.97;;
22015;SDS011;11172;51.698;-0.292;2022-10-31T05:11:07;75.68;;;68.22;;
22015;SDS011;11172;51.698;-0.292;2022-10-31T05:13:33;76.93;;;68.63;;
22015;SDS011;11172;51.698;-0.292;2022-10-31T05:15:59;76.28;;;68.15;;
22015;SDS011;11172;51.698;-0.292;2022-10-31T05:18:25;88.13;;;65.82;;
22015;SDS011;11172;51.698;-0.292;2022-10-31T05:20:51;86.45;;;73.85;;
22015;SDS011;11172;51.698;-0.292;2022-10-31T05:23:17;86.75;;;69.88;;
22015;SDS011;11172;51.698;-0.292;2022-10-31T05:25:43;78.88;;;69.40;;
22015;SDS011;11172;51.698;-0.292;2022-10-31T05:28:09;83.22;;;74.55;;
22015;SDS011;11172;51.698;-0.292;2022-10-31T05:30:35;107.03;;;76.95;;
22015;SDS011;11172;51.698;-0.292;2022-10-31T05:33:01;76.72;;;67.65;;
22015;SDS011;11172;51.698;-0.292;2022-10-31T05:35:28;79.55;;;71.03;;
22015;SDS011;11172;51.698;-0.292;2022-10-31T05:37:54;78.45;;;70.65;;
22015;SDS011;11172;51.698;-0.292;2022-10-31T05:40:22;74.75;;;66.15;;
22015;SDS011;11172;51.698;-0.292;2022-10-31T05:42:50;78.10;;;67.88;;
22015;SDS011;11172;51.698;-0.292;2022-10-31T05:45:16;83.18;;;67.30;;
22015;SDS011;11172;51.698;-0.292;2022-10-31T05:47:54;77.20;;;69.65;;
22015;SDS011;11172;51.698;-0.292;2022-10-31T05:50:21;76.95;;;68.82;;
22015;SDS011;11172;51.698;-0.292;2022-10-31T05:52:47;87.88;;;73.22;;
22015;SDS011;11172;51.698;-0.292;2022-10-31T05:55:13;77.63;;;69.20;;
22015;SDS011;11172;51.698;-0.292;2022-10-31T05:57:39;74.78;;;64.57;;
22015;SDS011;11172;51.698;-0.292;2022-10-31T06:00:08;73.28;;;65.40;;
22015;SDS011;11172;51.698;-0.292;2022-10-31T06:02:34;79.07;;;68.55;;
22015;SDS011;11172;51.698;-0.292;2022-10-31T06:05:00;82.35;;;69.57;;
22015;SDS011;11172;51.698;-0.292;2022-10-31T06:07:26;74.57;;;66.57;;
22015;SDS011;11172;51.698;-0.292;2022-10-31T06:09:52;80.82;;;72.15;;
22015;SDS011;11172;51.698;-0.292;2022-10-31T06:12:18;83.18;;;73.28;;
22015;SDS011;11172;51.698;-0.292;2022-10-31T06:14:44;79.95;;;71.80;;
22015;SDS011;11172;51.698;-0.292;2022-10-31T06:17:10;84.32;;;75.10;;
22015;SDS011;11172;51.698;-0.292;2022-10-31T06:19:37;74.75;;;66.78;;
22015;SDS011;11172;51.698;-0.292;2022-10-31T06:22:03;89.78;;;69.30;;
22015;SDS011;11172;51.698;-0.292;2022-10-31T06:24:29;81.88;;;73.15;;
22015;SDS011;11172;51.698;-0.292;2022-10-31T06:26:55;79.10;;;70.43;;
22015;SDS011;11172;51.698;-0.292;2022-10-31T06:29:21;75.90;;;67.82;;
22015;SDS011;11172;51.698;-0.292;2022-10-31T06:31:47;81.15;;;72.28;;
22015;SDS011;11172;51.698;-0.292;2022-10-31T06:34:13;83.22;;;74.63;;
22015;SDS011;11172;51.698;-0.292;2022-10-31T06:36:42;79.88;;;68.88;;
22015;SDS011;11172;51.698;-0.292;2022-10-31T06:39:10;88.97;;;76.70;;
22015;SDS011;11172;51.698;-0.292;2022-10-31T06:41:36;92.93;;;76.93;;
22015;SDS011;11172;51.698;-0.292;2022-10-31T06:44:02;79.95;;;71.30;;
22015;SDS011;11172;51.698;-0.292;2022-10-31T06:46:28;82.85;;;73.97;;
22015;SDS011;11172;51.698;-0.292;2022-10-31T06:48:54;82.68;;;73.78;;
22015;SDS011;11172;51.698;-0.292;2022-10-31T06:51:20;83.57;;;75.00;;
22015;SDS011;11172;51.698;-0.292;2022-10-31T06:53:49;85.00;;;74.65;;
22015;SDS011;11172;51.698;-0.292;2022-10-31T06:56:18;84.10;;;75.20;;
22015;SDS011;11172;51.698;-0.292;2022-10-31T06:58:45;82.22;;;71.57;;
22015;SDS011;11172;51.698;-0.292;2022-10-31T07:01:14;83.90;;;75.15;;
22015;SDS011;11172;51.698;-0.292;2022-10-31T07:03:40;85.53;;;76.47;;
22015;SDS011;11172;51.698;-0.292;2022-10-31T07:06:06;82.95;;;72.30;;
22015;SDS011;11172;51.698;-0.292;2022-10-31T07:08:35;83.07;;;74.20;;
22015;SDS011;11172;51.698;-0.292;2022-10-31T07:11:02;89.40;;;79.75;;
22015;SDS011;11172;51.698;-0.292;2022-10-31T07:13:28;80.35;;;72.45;;
22015;SDS011;11172;51.698;-0.292;2022-10-31T07:16:02;81.95;;;73.25;;
22015;SDS011;11172;51.698;-0.292;2022-10-31T07:18:31;80.70;;;72.00;;
22015;SDS011;11172;51.698;-0.292;2022-10-31T07:21:15;78.80;;;70.72;;
22015;SDS011;11172;51.698;-0.292;2022-10-31T07:23:44;90.10;;;80.05;;
22015;SDS011;11172;51.698;-0.292;2022-10-31T07:26:15;60.88;;;54.80;;
22015;SDS011;11172;51.698;-0.292;2022-10-31T07:28:41;91.85;;;81.53;;
22015;SDS011;11172;51.698;-0.292;2022-10-31T07:31:07;82.43;;;73.50;;
22015;SDS011;11172;51.698;-0.292;2022-10-31T07:33:33;81.75;;;69.15;;
22015;SDS011;11172;51.698;-0.292;2022-10-31T07:35:59;83.40;;;74.72;;
22015;SDS011;11172;51.698;-0.292;2022-10-31T07:38:25;82.20;;;72.55;;
22015;SDS011;11172;51.698;-0.292;2022-10-31T07:40:52;77.10;;;68.63;;
22015;SDS011;11172;51.698;-0.292;2022-10-31T07:43:18;79.78;;;71.53;;
22015;SDS011;11172;51.698;-0.292;2022-10-31T07:45:49;79.97;;;72.28;;
22015;SDS011;11172;51.698;-0.292;2022-10-31T07:48:15;78.18;;;70.28;;
22015;SDS011;11172;51.698;-0.292;2022-10-31T07:50:41;82.40;;;71.65;;
22015;SDS011;11172;51.698;-0.292;2022-10-31T07:53:08;79.72;;;71.50;;
22015;SDS011;11172;51.698;-0.292;2022-10-31T07:55:34;78.90;;;70.95;;
22015;SDS011;11172;51.698;-0.292;2022-10-31T07:58:05;77.10;;;69.07;;
22015;SDS011;11172;51.698;-0.292;2022-10-31T08:00:32;86.82;;;77.75;;
22015;SDS011;11172;51.698;-0.292;2022-10-31T08:02:58;77.80;;;70.10;;
22015;SDS011;11172;51.698;-0.292;2022-10-31T08:05:24;74.10;;;66.43;;
22015;SDS011;11172;51.698;-0.292;2022-10-31T08:07:51;76.05;;;68.65;;
22015;SDS011;11172;51.698;-0.292;2022-10-31T08:10:18;75.75;;;68.13;;
22015;SDS011;11172;51.698;-0.292;2022-10-31T08:12:44;79.07;;;70.63;;
22015;SDS011;11172;51.698;-0.292;2022-10-31T08:15:10;75.82;;;68.38;;
22015;SDS011;11172;51.698;-0.292;2022-10-31T08:17:36;73.40;;;66.53;;
22015;SDS011;11172;51.698;-0.292;2022-10-31T08:20:03;79.65;;;66.35;;
22015;SDS011;11172;51.698;-0.292;2022-10-31T08:22:31;66.53;;;59.78;;
22015;SDS011;11172;51.698;-0.292;2022-10-31T08:27:29;82.47;;;74.20;;
22015;SDS011;11172;51.698;-0.292;2022-10-31T08:29:56;66.90;;;60.42;;
22015;SDS011;11172;51.698;-0.292;2022-10-31T08:32:23;59.10;;;53.42;;
22015;SDS011;11172;51.698;-0.292;2022-10-31T08:34:49;58.90;;;52.63;;
22015;SDS011;11172;51.698;-0.292;2022-10-31T08:37:15;56.25;;;50.80;;
22015;SDS011;11172;51.698;-0.292;2022-10-31T08:39:45;51.95;;;47.08;;
22015;SDS011;11172;51.698;-0.292;2022-10-31T08:42:11;47.60;;;42.60;;
22015;SDS011;11172;51.698;-0.292;2022-10-31T08:44:37;41.63;;;37.15;;
22015;SDS011;11172;51.698;-0.292;2022-10-31T08:47:03;46.60;;;38.83;;
22015;SDS011;11172;51.698;-0.292;2022-10-31T08:49:29;34.97;;;31.75;;
22015;SDS011;11172;51.698;-0.292;2022-10-31T08:51:55;32.75;;;29.92;;
22015;SDS011;11172;51.698;-0.292;2022-10-31T08:54:22;30.48;;;27.15;;
22015;SDS011;11172;51.698;-0.292;2022-10-31T08:59:20;31.30;;;22.63;;
22015;SDS011;11172;51.698;-0.292;2022-10-31T09:01:57;22.23;;;19.90;;
22015;SDS011;11172;51.698;-0.292;2022-10-31T09:04:23;28.63;;;20.20;;
22015;SDS011;11172;51.698;-0.292;2022-10-31T09:06:49;17.92;;;16.05;;
22015;SDS011;11172;51.698;-0.292;2022-10-31T09:09:15;29.15;;;16.70;;
22015;SDS011;11172;51.698;-0.292;2022-10-31T09:11:41;24.17;;;14.18;;
22015;SDS011;11172;51.698;-0.292;2022-10-31T09:14:07;53.13;;;20.60;;
22015;SDS011;11172;51.698;-0.292;2022-10-31T09:16:33;10.85;;;9.18;;
22015;SDS011;11172;51.698;-0.292;2022-10-31T09:18:59;9.50;;;8.52;;
22015;SDS011;11172;51.698;-0.292;2022-10-31T09:21:25;14.40;;;8.38;;
22015;SDS011;11172;51.698;-0.292;2022-10-31T09:23:51;18.30;;;8.85;;
22015;SDS011;11172;51.698;-0.292;2022-10-31T09:26:18;14.07;;;7.22;;
22015;SDS011;11172;51.698;-0.292;2022-10-31T09:28:44;17.02;;;7.68;;
22015;SDS011;11172;51.698;-0.292;2022-10-31T09:31:11;12.32;;;5.35;;
22015;SDS011;11172;51.698;-0.292;2022-10-31T09:33:42;18.23;;;6.10;;
22015;SDS011;11172;51.698;-0.292;2022-10-31T09:36:08;9.25;;;4.45;;
22015;SDS011;11172;51.698;-0.292;2022-10-31T09:38:34;15.45;;;6.03;;
22015;SDS011;11172;51.698;-0.292;2022-10-31T09:48:41;8.55;;;3.35;;
22015;SDS011;11172;51.698;-0.292;2022-10-31T09:51:29;5.70;;;3.05;;
22015;SDS011;11172;51.698;-0.292;2022-10-31T09:56:22;10.43;;;4.07;;
22015;SDS011;11172;51.698;-0.292;2022-10-31T09:58:54;7.03;;;2.95;;
22015;SDS011;11172;51.698;-0.292;2022-10-31T10:01:34;11.35;;;2.92;;
22015;SDS011;11172;51.698;-0.292;2022-10-31T10:06:35;7.13;;;2.13;;
22015;SDS011;11172;51.698;-0.292;2022-10-31T10:09:04;37.78;;;9.40;;
22015;SDS011;11172;51.698;-0.292;2022-10-31T10:19:15;9.13;;;3.47;;
22015;SDS011;11172;51.698;-0.292;2022-10-31T10:26:59;11.93;;;2.95;;
22015;SDS011;11172;51.698;-0.292;2022-10-31T10:29:31;9.00;;;4.53;;
22015;SDS011;11172;51.698;-0.292;2022-10-31T10:32:00;7.85;;;3.60;;
22015;SDS011;11172;51.698;-0.292;2022-10-31T10:34:28;9.32;;;3.55;;
22015;SDS011;11172;51.698;-0.292;2022-10-31T10:36:57;8.18;;;4.00;;
22015;SDS011;11172;51.698;-0.292;2022-10-31T10:39:35;18.30;;;4.50;;
22015;SDS011;11172;51.698;-0.292;2022-10-31T10:42:04;11.43;;;4.70;;
22015;SDS011;11172;51.698;-0.292;2022-10-31T10:44:52;8.35;;;3.90;;
22015;SDS011;11172;51.698;-0.292;2022-10-31T10:47:41;8.30;;;4.18;;
22015;SDS011;11172;51.698;-0.292;2022-10-31T10:50:21;11.88;;;3.88;;
22015;SDS011;11172;51.698;-0.292;2022-10-31T10:55:45;6.72;;;4.07;;
22015;SDS011;11172;51.698;-0.292;2022-10-31T10:58:15;7.38;;;3.92;;
22015;SDS011;11172;51.698;-0.292;2022-10-31T11:00:42;6.50;;;4.40;;
22015;SDS011;11172;51.698;-0.292;2022-10-31T11:03:09;9.95;;;4.05;;
22015;SDS011;11172;51.698;-0.292;2022-10-31T11:05:40;7.43;;;4.57;;
22015;SDS011;11172;51.698;-0.292;2022-10-31T11:08:08;9.32;;;2.72;;
22015;SDS011;11172;51.698;-0.292;2022-10-31T11:10:34;7.25;;;3.60;;
22015;SDS011;11172;51.698;-0.292;2022-10-31T11:13:06;15.05;;;5.80;;
22015;SDS011;11172;51.698;-0.292;2022-10-31T11:15:56;12.63;;;6.45;;
22015;SDS011;11172;51.698;-0.292;2022-10-31T11:18:20;9.30;;;5.78;;
22015;SDS011;11172;51.698;-0.292;2022-10-31T11:23:21;7.20;;;3.65;;
22015;SDS011;11172;51.698;-0.292;2022-10-31T11:25:55;11.85;;;4.63;;
22015;SDS011;11172;51.698;-0.292;2022-10-31T11:28:21;8.65;;;5.30;;
22015;SDS011;11172;51.698;-0.292;2022-10-31T11:30:54;4.70;;;4.32;;
22015;SDS011;11172;51.698;-0.292;2022-10-31T11:33:34;28.83;;;7.47;;
22015;SDS011;11172;51.698;-0.292;2022-10-31T11:36:01;7.53;;;4.88;;
22015;SDS011;11172;51.698;-0.292;2022-10-31T11:38:39;10.27;;;5.88;;
22015;SDS011;11172;51.698;-0.292;2022-10-31T11:43:38;10.35;;;5.55;;
22015;SDS011;11172;51.698;-0.292;2022-10-31T11:48:30;7.13;;;4.80;;
22015;SDS011;11172;51.698;-0.292;2022-10-31T11:50:57;7.63;;;5.47;;
22015;SDS011;11172;51.698;-0.292;2022-10-31T11:53:30;9.07;;;5.32;;
22015;SDS011;11172;51.698;-0.292;2022-10-31T11:56:09;6.93;;;5.50;;
22015;SDS011;11172;51.698;-0.292;2022-10-31T11:58:36;10.63;;;5.38;;
22015;SDS011;11172;51.698;-0.292;2022-10-31T12:01:01;7.22;;;5.45;;
22015;SDS011;11172;51.698;-0.292;2022-10-31T12:03:31;7.55;;;5.57;;
22015;SDS011;11172;51.698;-0.292;2022-10-31T12:08:34;7.80;;;5.45;;
22015;SDS011;11172;51.698;-0.292;2022-10-31T12:16:22;6.22;;;5.63;;
22015;SDS011;11172;51.698;-0.292;2022-10-31T12:19:04;8.57;;;6.35;;
22015;SDS011;11172;51.698;-0.292;2022-10-31T12:26:42;11.15;;;6.93;;
22015;SDS011;11172;51.698;-0.292;2022-10-31T12:34:22;6.05;;;5.25;;
22015;SDS011;11172;51.698;-0.292;2022-10-31T12:42:28;7.07;;;6.35;;
22015;SDS011;11172;51.698;-0.292;2022-10-31T12:52:38;13.50;;;6.47;;
22015;SDS011;11172;51.698;-0.292;2022-10-31T12:57:38;8.48;;;7.72;;
22015;SDS011;11172;51.698;-0.292;2022-10-31T13:00:13;7.65;;;6.53;;
22015;SDS011;11172;51.698;-0.292;2022-10-31T13:03:03;10.50;;;7.32;;
22015;SDS011;11172;51.698;-0.292;2022-10-31T13:08:11;8.20;;;7.15;;
22015;SDS011;11172;51.698;-0.292;2022-10-31T13:13:12;12.52;;;8.77;;
22015;SDS011;11172;51.698;-0.292;2022-10-31T13:16:01;10.02;;;7.32;;
22015;SDS011;11172;51.698;-0.292;2022-10-31T13:20:58;9.73;;;2.93;;
22015;SDS011;11172;51.698;-0.292;2022-10-31T13:23:35;9.15;;;8.25;;
22015;SDS011;11172;51.698;-0.292;2022-10-31T13:26:10;8.15;;;7.32;;
22015;SDS011;11172;51.698;-0.292;2022-10-31T13:31:05;11.32;;;8.80;;
22015;SDS011;11172;51.698;-0.292;2022-10-31T13:33:33;15.52;;;8.63;;
22015;SDS011;11172;51.698;-0.292;2022-10-31T13:38:51;13.93;;;8.57;;
22015;SDS011;11172;51.698;-0.292;2022-10-31T13:44:01;9.18;;;8.27;;
22015;SDS011;11172;51.698;-0.292;2022-10-31T13:48:59;12.18;;;9.23;;
22015;SDS011;11172;51.698;-0.292;2022-10-31T13:51:26;10.63;;;8.57;;
22015;SDS011;11172;51.698;-0.292;2022-10-31T14:01:34;9.95;;;8.40;;
22015;SDS011;11172;51.698;-0.292;2022-10-31T14:04:12;8.52;;;7.68;;
22015;SDS011;11172;51.698;-0.292;2022-10-31T14:06:44;15.02;;;9.65;;
22015;SDS011;11172;51.698;-0.292;2022-10-31T14:14:51;10.75;;;9.77;;
22015;SDS011;11172;51.698;-0.292;2022-10-31T14:17:19;10.73;;;8.63;;
22015;SDS011;11172;51.698;-0.292;2022-10-31T14:19:59;9.27;;;8.05;;
22015;SDS011;11172;51.698;-0.292;2022-10-31T14:22:28;12.25;;;9.85;;
22015;SDS011;11172;51.698;-0.292;2022-10-31T14:24:55;15.15;;;10.02;;
22015;SDS011;11172;51.698;-0.292;2022-10-31T14:29:51;11.00;;;9.75;;
22015;SDS011;11172;51.698;-0.292;2022-10-31T14:32:19;12.18;;;9.40;;
22015;SDS011;11172;51.698;-0.292;2022-10-31T14:37:25;10.30;;;9.32;;
22015;SDS011;11172;51.698;-0.292;2022-10-31T14:45:02;11.93;;;9.80;;
22015;SDS011;11172;51.698;-0.292;2022-10-31T14:55:23;13.60;;;12.25;;
22015;SDS011;11172;51.698;-0.292;2022-10-31T14:58:00;11.93;;;10.82;;
22015;SDS011;11172;51.698;-0.292;2022-10-31T15:00:26;16.70;;;12.05;;
22015;SDS011;11172;51.698;-0.292;2022-10-31T15:02:56;12.75;;;10.63;;
22015;SDS011;11172;51.698;-0.292;2022-10-31T15:05:25;12.52;;;11.43;;
22015;SDS011;11172;51.698;-0.292;2022-10-31T15:07:52;21.13;;;12.02;;
22015;SDS011;11172;51.698;-0.292;2022-10-31T15:10:20;15.90;;;13.60;;
22015;SDS011;11172;51.698;-0.292;2022-10-31T15:12:47;13.85;;;11.52;;
22015;SDS011;11172;51.698;-0.292;2022-10-31T15:15:14;13.30;;;11.95;;
22015;SDS011;11172;51.698;-0.292;2022-10-31T15:17:43;17.95;;;12.90;;
22015;SDS011;11172;51.698;-0.292;2022-10-31T15:20:12;14.52;;;13.13;;
22015;SDS011;11172;51.698;-0.292;2022-10-31T15:22:42;5.80;;;3.28;;
22015;SDS011;11172;51.698;-0.292;2022-10-31T15:25:14;15.77;;;14.13;;
22015;SDS011;11172;51.698;-0.292;2022-10-31T15:27:42;18.02;;;15.85;;
22015;SDS011;11172;51.698;-0.292;2022-10-31T15:30:22;15.20;;;13.85;;
22015;SDS011;11172;51.698;-0.292;2022-10-31T15:32:49;37.38;;;18.65;;
22015;SDS011;11172;51.698;-0.292;2022-10-31T15:35:28;18.02;;;14.68;;
22015;SDS011;11172;51.698;-0.292;2022-10-31T15:37:55;18.15;;;15.85;;
22015;SDS011;11172;51.698;-0.292;2022-10-31T15:40:22;17.25;;;15.60;;
22015;SDS011;11172;51.698;-0.292;2022-10-31T15:45:22;15.68;;;14.13;;
22015;SDS011;11172;51.698;-0.292;2022-10-31T15:47:58;17.55;;;15.80;;
22015;SDS011;11172;51.698;-0.292;2022-10-31T15:50:32;16.63;;;14.88;;
22015;SDS011;11172;51.698;-0.292;2022-10-31T15:53:01;20.00;;;16.73;;
22015;SDS011;11172;51.698;-0.292;2022-10-31T15:55:27;16.02;;;14.50;;
22015;SDS011;11172;51.698;-0.292;2022-10-31T15:57:58;22.15;;;16.67;;
22015;SDS011;11172;51.698;-0.292;2022-10-31T16:00:29;21.50;;;16.30;;
22015;SDS011;11172;51.698;-0.292;2022-10-31T16:05:48;21.27;;;19.10;;
22015;SDS011;11172;51.698;-0.292;2022-10-31T16:08:24;18.48;;;16.70;;
22015;SDS011;11172;51.698;-0.292;2022-10-31T16:10:51;18.90;;;17.05;;
22015;SDS011;11172;51.698;-0.292;2022-10-31T16:13:17;18.02;;;16.15;;
22015;SDS011;11172;51.698;-0.292;2022-10-31T16:15:50;17.60;;;15.95;;
22015;SDS011;11172;51.698;-0.292;2022-10-31T16:18:17;20.10;;;17.67;;
22015;SDS011;11172;51.698;-0.292;2022-10-31T16:20:47;18.10;;;16.33;;
22015;SDS011;11172;51.698;-0.292;2022-10-31T16:23:16;22.10;;;18.80;;
22015;SDS011;11172;51.698;-0.292;2022-10-31T16:25:42;23.50;;;19.92;;
22015;SDS011;11172;51.698;-0.292;2022-10-31T16:28:19;22.27;;;19.25;;
22015;SDS011;11172;51.698;-0.292;2022-10-31T16:30:47;21.77;;;18.52;;
22015;SDS011;11172;51.698;-0.292;2022-10-31T16:35:52;26.92;;;22.48;;
22015;SDS011;11172;51.698;-0.292;2022-10-31T16:38:19;26.15;;;20.40;;
22015;SDS011;11172;51.698;-0.292;2022-10-31T16:40:45;20.80;;;18.60;;
22015;SDS011;11172;51.698;-0.292;2022-10-31T16:43:12;21.85;;;19.67;;
22015;SDS011;11172;51.698;-0.292;2022-10-31T16:48:12;27.65;;;22.85;;
22015;SDS011;11172;51.698;-0.292;2022-10-31T16:50:40;24.77;;;22.30;;
22015;SDS011;11172;51.698;-0.292;2022-10-31T16:53:06;25.35;;;20.67;;
22015;SDS011;11172;51.698;-0.292;2022-10-31T16:55:33;27.15;;;22.63;;
22015;SDS011;11172;51.698;-0.292;2022-10-31T16:58:00;27.95;;;23.20;;
22015;SDS011;11172;51.698;-0.292;2022-10-31T17:00:27;24.38;;;21.58;;
22015;SDS011;11172;51.698;-0.292;2022-10-31T17:02:54;22.10;;;20.08;;